• Join FlightAware (Why Join?)
  • Login
  • US Flag 
08:31PM EDT


 

Airport Tracker/Info


-or-


 

Live Flight TrackerFlight Track Log ✈ SWA286 ✈ 07-Apr-2013 ✈ KISP - KBWI

Flight Track Log - Related Links

Times and Time Zones

All times are in EDT time to prevent confusion due to time zone crossing. See the SWA286 flight status page for this flight to view local times or setup timezone preferences in your user account.

Time Position Orientation Groundspeed Altitude Reporting Facility
EDT Latitude Longitude Course Direction KTS MPH feet Rate Location/Type
03:21PM 40.7789 -73.1308 221° Southwest 133 153 1,900  Level Boston Center
03:22PM 40.7353 -73.1331 182° South 134 154 5,000 3,120 Climbing Boston Center
03:23PM 40.7192 -73.0369 102° East 153 176 8,300 3,000 Climbing Boston Center
03:24PM 40.6592 -72.9625 137° Southeast 230 265 11,000 2,760 Climbing Boston Center
03:25PM 40.5761 -72.8992 150° Southeast 299 344 13,800 3,000 Climbing Boston Center
03:26PM 40.5008 -72.9642 213° Southwest 271 312 17,000 2,820 Climbing Boston Center
03:27PM 40.7232 -72.5449 221° Southwest  Level FlightAware Approximate
03:27PM 40.4358 -73.0264 216° Southwest 299 344 19,600  Level Boston Center
03:29PM 40.2361 -73.2356 219° Southwest 381 438 24,900 2,460 Climbing Washington Center
03:30PM 40.1461 -73.3253 217° Southwest 401 461 27,600 1,500 Climbing Washington Center
03:31PM 40.0583 -73.4175 219° Southwest 411 473 28,000 180 Climbing Washington Center
03:32PM 39.9703 -73.5069 218° Southwest 416 479 28,000  Level Washington Center
03:33PM 39.8761 -73.5989 217° Southwest 416 479 28,000  Level Washington Center
03:34PM 39.7858 -73.6906 218° Southwest 416 479 28,000  Level Washington Center
03:35PM 39.6956 -73.7847 219° Southwest 416 479 28,000  Level Washington Center
03:36PM 39.6244 -73.8997 231° Southwest 416 479 28,000  Level Washington Center
03:37PM 39.5531 -74.0169 232° Southwest 410 472 28,000 -300 Level Washington Center
03:38PM 39.4858 -74.1289 232° Southwest 410 472 27,500 -840 Descending Washington Center
03:39PM 39.4203 -74.2350 231° Southwest 397 457 26,400 -1,080 Descending Washington Center
03:40PM 39.3528 -74.3436 231° Southwest 391 450 25,400 -1,020 Descending Washington Center
03:41PM 39.2892 -74.4492 232° Southwest 385 443 24,400 -1,020 Descending Washington Center
03:42PM 39.2256 -74.5519 231° Southwest 380 437 23,400 -1,020 Descending Washington Center
03:43PM 39.1617 -74.6572 232° Southwest 374 430 22,400 -1,440 Descending Washington Center
03:44PM 39.0978 -74.7572 231° Southwest 369 425 20,600 -1,800 Descending Washington Center
03:45PM 39.0442 -74.8433 231° Southwest 363 418 18,800 -1,500 Descending Washington Center
03:46PM 38.9864 -74.9372 232° Southwest 349 402 17,700 -1,080 Descending Washington Center
03:47PM 38.9286 -75.0258 230° Southwest 344 396 16,700 -900 Descending Washington Center
03:48PM 38.8686 -75.1225 231° Southwest 344 396 16,000 -720 Descending Washington Center
03:49PM 38.8147 -75.2186 234° Southwest 344 396 15,300 -900 Descending Washington Center
03:50PM 38.8006 -75.3386 261° West 327 376 14,300 -1,020 Descending Washington Center
03:51PM 38.7944 -75.4506 266° West 322 371 13,300 -660 Descending Washington Center
03:52PM 38.7883 -75.5650 266° West 327 376 13,000 -180 Descending Washington Center
03:53PM 38.7819 -75.6794 266° West 327 376 13,000 -360 Level Washington Center
03:54PM 38.7756 -75.7939 266° West 333 383 12,300 -900 Descending Washington Center
03:55PM 38.7669 -75.9058 264° West 327 376 11,300 -960 Descending Washington Center
03:56PM 38.7603 -76.0069 265° West 308 354 10,400 -1,020 Descending Washington Center
03:57PM 38.7767 -76.0975 283° West 283 326 9,300 -1,320 Descending Washington Center
03:58PM 38.8139 -76.1883 298° West 258 297 7,800 -1,560 Descending Washington Center
03:59PM 38.8447 -76.2686 296° West 264 304 6,200 -1,320 Descending Washington Center
04:00PM 38.8756 -76.3517 296° West 259 298 5,200 -1,020 Descending Washington Center
04:01PM 38.9000 -76.4167 296° West 257 296 4,300 -660 Descending Potomac TRACON
04:02PM 38.9333 -76.5000 297° West 252 290 4,000 -180 Descending Potomac TRACON
04:03PM 38.9667 -76.5833 297° West 250 288 4,000  Level Potomac TRACON
04:04PM 39.0000 -76.6667 297° West 254 292 4,000  Level Potomac TRACON
04:05PM 39.0333 -76.7333 303° West 260 299 4,000  Level Potomac TRACON
04:06PM 39.0667 -76.8000 303° West 227 261 4,000 -420 Level Potomac TRACON
04:07PM 39.1333 -76.8167 349° North 224 258 3,200 -780 Descending Potomac TRACON
04:08PM 39.1667 -76.8167 360° North 180 207 2,500 -960 Descending Potomac TRACON
04:09PM 39.1833 -76.7667 67° East 145 167 1,400 -900 Descending Potomac TRACON
04:10PM 39.1833 -76.7167 90° East 139 160 700 -720 Descending Potomac TRACON
04:12PM 39.1667 -76.6667 102° East  Level FlightAware Approximate
04:19PM 39.1754 -76.6683 102° East  Level Estimated
04:20PM 39.1754 -76.6683 102° East  Level Estimated
04:21PM 39.1754 -76.6683 102° East  Level Estimated